Time,TemperatureF,DewpointF,PressureIn,WindDirection,WindDirectionDegrees,WindSpeedMPH,WindSpeedGustMPH,Humidity,HourlyPrecipIn,Conditions,Clouds,dailyrainin,SolarRadiationWatts/m^2,SoftwareType,DateUTC
2013-10-31 00:08:00,29.7,23.0,29.96,SW,233,2.0,7.0,75,0.00,,,0.00,0,weatherlink.com 1.10,2013-10-31 06:08:00,
2013-10-31 00:23:00,30.1,22.0,29.96,WSW,241,2.0,10.0,73,0.00,,,0.00,0,weatherlink.com 1.10,2013-10-31 06:23:00,
2013-10-31 00:38:00,30.3,22.0,29.96,West,263,3.0,8.0,72,0.00,,,0.00,0,weatherlink.com 1.10,2013-10-31 06:38:00,
2013-10-31 00:52:00,30.3,22.0,29.95,West,263,6.0,9.0,71,0.00,,,0.00,0,weatherlink.com 1.10,2013-10-31 06:52:00,
2013-10-31 01:07:00,30.3,22.0,29.95,SW,235,7.0,10.0,72,0.00,,,0.00,0,weatherlink.com 1.10,2013-10-31 07:07:00,
2013-10-31 01:22:00,29.8,22.0,29.95,WSW,250,4.0,8.0,72,0.00,,,0.00,0,weatherlink.com 1.10,2013-10-31 07:22:00,
2013-10-31 01:37:00,29.4,22.0,29.95,West,267,2.0,9.0,73,0.00,,,0.00,0,weatherlink.com 1.10,2013-10-31 07:37:00,
2013-10-31 01:51:00,29.2,22.0,29.94,West,269,4.0,6.0,73,0.00,,,0.00,0,weatherlink.com 1.10,2013-10-31 07:51:00,
2013-10-31 02:06:00,29.5,21.0,29.95,West,277,3.0,8.0,71,0.00,,,0.00,0,weatherlink.com 1.10,2013-10-31 08:06:00,
2013-10-31 02:21:00,30.0,21.0,29.94,West,261,2.0,7.0,69,0.00,,,0.00,0,weatherlink.com 1.10,2013-10-31 08:21:00,
2013-10-31 02:36:00,30.0,21.0,29.94,WSW,257,4.0,11.0,69,0.00,,,0.00,0,weatherlink.com 1.10,2013-10-31 08:36:00,
2013-10-31 02:51:00,30.1,20.0,29.93,WSW,250,3.0,8.0,67,0.00,,,0.00,0,weatherlink.com 1.10,2013-10-31 08:51:00,
2013-10-31 03:06:00,29.7,20.0,29.93,West,265,3.0,7.0,67,0.00,,,0.00,0,weatherlink.com 1.10,2013-10-31 09:06:00,
2013-10-31 03:20:00,29.3,20.0,29.92,WSW,249,2.0,9.0,68,0.00,,,0.00,0,weatherlink.com 1.10,2013-10-31 09:20:00,
2013-10-31 03:35:00,29.8,21.0,29.92,WSW,250,3.0,9.0,68,0.00,,,0.00,0,weatherlink.com 1.10,2013-10-31 09:35:00,
2013-10-31 03:50:00,29.4,20.0,29.93,WSW,250,4.0,7.0,69,0.00,,,0.00,0,weatherlink.com 1.10,2013-10-31 09:50:00,
2013-10-31 04:05:00,29.9,21.0,29.92,West,266,3.0,10.0,69,0.00,,,0.00,0,weatherlink.com 1.10,2013-10-31 10:05:00,
2013-10-31 04:19:00,30.3,21.0,29.93,WSW,250,1.0,7.0,69,0.00,,,0.00,0,weatherlink.com 1.10,2013-10-31 10:19:00,
2013-10-31 04:34:00,31.1,22.0,29.92,WSW,256,4.0,5.0,69,0.00,,,0.00,0,weatherlink.com 1.10,2013-10-31 10:34:00,
2013-10-31 04:49:00,31.3,22.0,29.93,West,265,3.0,7.0,69,0.00,,,0.00,0,weatherlink.com 1.10,2013-10-31 10:49:00,
2013-10-31 05:04:00,31.9,23.0,29.93,WSW,238,2.0,8.0,70,0.00,,,0.00,0,weatherlink.com 1.10,2013-10-31 11:04:00,
2013-10-31 05:18:00,32.0,24.0,29.93,WSW,248,3.0,3.0,71,0.00,,,0.00,0,weatherlink.com 1.10,2013-10-31 11:18:00,
2013-10-31 05:33:00,32.1,24.0,29.93,West,272,0.0,6.0,72,0.00,,,0.00,0,weatherlink.com 1.10,2013-10-31 11:33:00,
2013-10-31 05:48:00,32.0,24.0,29.93,West,273,1.0,4.0,73,0.00,,,0.00,0,weatherlink.com 1.10,2013-10-31 11:48:00,
2013-10-31 06:03:00,31.9,25.0,29.94,West,273,0.0,3.0,74,0.00,,,0.00,0,weatherlink.com 1.10,2013-10-31 12:03:00,
2013-10-31 06:17:00,32.0,25.0,29.94,WSW,250,2.0,5.0,74,0.00,,,0.00,0,weatherlink.com 1.10,2013-10-31 12:17:00,
2013-10-31 06:32:00,32.2,25.0,29.93,WSW,257,0.0,2.0,74,0.00,,,0.00,0,weatherlink.com 1.10,2013-10-31 12:32:00,
2013-10-31 06:47:00,32.2,25.0,29.92,West,267,2.0,4.0,74,0.00,,,0.00,0,weatherlink.com 1.10,2013-10-31 12:47:00,
2013-10-31 07:02:00,32.1,25.0,29.92,WSW,248,1.0,4.0,75,0.00,,,0.00,0,weatherlink.com 1.10,2013-10-31 13:02:00,
2013-10-31 07:16:00,31.7,25.0,29.92,WSW,246,5.0,7.0,76,0.00,,,0.00,0,weatherlink.com 1.10,2013-10-31 13:16:00,
2013-10-31 07:31:00,32.1,25.0,29.92,WSW,245,0.0,4.0,75,0.00,,,0.00,0,weatherlink.com 1.10,2013-10-31 13:31:00,
2013-10-31 07:46:00,30.8,24.0,29.93,SW,234,2.0,3.0,77,0.00,,,0.00,0,weatherlink.com 1.10,2013-10-31 13:46:00,
2013-10-31 08:01:00,30.6,25.0,29.93,WSW,249,3.0,6.0,80,0.00,,,0.00,7,weatherlink.com 1.10,2013-10-31 14:01:00,
2013-10-31 08:16:00,31.0,26.0,29.94,WSW,247,4.0,7.0,80,0.00,,,0.00,26,weatherlink.com 1.10,2013-10-31 14:16:00,
2013-10-31 08:31:00,32.3,27.0,29.94,WSW,242,4.0,7.0,79,0.00,,,0.00,53,weatherlink.com 1.10,2013-10-31 14:31:00,
2013-10-31 08:46:00,33.4,27.0,29.94,West,274,3.0,8.0,77,0.00,,,0.00,39,weatherlink.com 1.10,2013-10-31 14:46:00,
2013-10-31 09:01:00,34.1,28.0,29.95,WSW,250,1.0,4.0,77,0.00,,,0.00,76,weatherlink.com 1.10,2013-10-31 15:01:00,
2013-10-31 09:16:00,34.6,28.0,29.95,WSW,239,2.0,4.0,77,0.00,,,0.00,69,weatherlink.com 1.10,2013-10-31 15:16:00,
2013-10-31 09:31:00,35.5,28.0,29.94,SW,234,0.0,4.0,75,0.00,,,0.00,93,weatherlink.com 1.10,2013-10-31 15:31:00,
2013-10-31 09:46:00,36.5,29.0,29.94,WSW,245,1.0,4.0,74,0.00,,,0.00,116,weatherlink.com 1.10,2013-10-31 15:46:00,
2013-10-31 10:01:00,37.6,29.0,29.94,WSW,245,0.0,2.0,72,0.00,,,0.00,174,weatherlink.com 1.10,2013-10-31 16:01:00,
2013-10-31 10:16:00,38.8,30.0,29.94,SSW,209,1.0,2.0,70,0.00,,,0.00,221,weatherlink.com 1.10,2013-10-31 16:16:00,
2013-10-31 10:31:00,40.2,28.0,29.93,South,184,0.0,2.0,61,0.00,,,0.00,179,weatherlink.com 1.10,2013-10-31 16:31:00,
2013-10-31 10:46:00,41.0,28.0,29.93,SW,217,0.0,3.0,60,0.00,,,0.00,148,weatherlink.com 1.10,2013-10-31 16:46:00,
2013-10-31 11:00:00,41.5,29.0,29.93,SW,217,0.0,0.0,60,0.00,,,0.00,123,weatherlink.com 1.10,2013-10-31 17:00:00,
2013-10-31 11:15:00,41.6,29.0,29.94,SW,217,0.0,0.0,61,0.00,,,0.00,65,weatherlink.com 1.10,2013-10-31 17:15:00,
2013-10-31 11:30:00,41.3,30.0,29.93,SW,219,0.0,3.0,65,0.00,,,0.00,83,weatherlink.com 1.10,2013-10-31 17:30:00,
2013-10-31 11:45:00,40.6,29.0,29.93,ESE,107,3.0,6.0,63,0.00,,,0.00,79,weatherlink.com 1.10,2013-10-31 17:45:00,
2013-10-31 11:59:00,41.3,29.0,29.93,ESE,119,1.0,5.0,62,0.00,,,0.00,174,weatherlink.com 1.10,2013-10-31 17:59:00,
2013-10-31 12:14:00,41.1,29.0,29.93,ESE,123,0.0,6.0,63,0.00,,,0.00,111,weatherlink.com 1.10,2013-10-31 18:14:00,
2013-10-31 12:29:00,40.7,30.0,29.92,WSW,238,0.0,3.0,65,0.00,,,0.00,172,weatherlink.com 1.10,2013-10-31 18:29:00,
2013-10-31 12:44:00,40.9,30.0,29.91,ENE,76,0.0,3.0,66,0.00,,,0.00,207,weatherlink.com 1.10,2013-10-31 18:44:00,
2013-10-31 12:58:00,42.8,29.0,29.90,West,269,4.0,8.0,57,0.00,,,0.00,178,weatherlink.com 1.10,2013-10-31 18:58:00,
2013-10-31 13:14:00,44.2,28.0,29.89,West,267,0.0,7.0,53,0.00,,,0.00,169,weatherlink.com 1.10,2013-10-31 19:14:00,
2013-10-31 13:28:00,45.0,29.0,29.88,ESE,104,0.0,6.0,53,0.00,,,0.00,209,weatherlink.com 1.10,2013-10-31 19:28:00,
2013-10-31 13:44:00,44.7,31.0,29.88,East,97,1.0,5.0,59,0.00,,,0.00,264,weatherlink.com 1.10,2013-10-31 19:44:00,
2013-10-31 13:58:00,44.7,32.0,29.87,ENE,62,4.0,5.0,62,0.00,,,0.00,227,weatherlink.com 1.10,2013-10-31 19:58:00,
2013-10-31 14:13:00,46.3,33.0,29.87,ENE,69,1.0,5.0,59,0.00,,,0.00,373,weatherlink.com 1.10,2013-10-31 20:13:00,
2013-10-31 14:28:00,45.6,31.0,29.87,East,79,1.0,2.0,57,0.00,,,0.00,216,weatherlink.com 1.10,2013-10-31 20:28:00,
2013-10-31 14:43:00,45.3,31.0,29.87,SE,139,0.0,2.0,56,0.00,,,0.00,111,weatherlink.com 1.10,2013-10-31 20:43:00,
2013-10-31 14:58:00,44.7,30.0,29.88,ENE,72,0.0,1.0,57,0.00,,,0.00,132,weatherlink.com 1.10,2013-10-31 20:58:00,
2013-10-31 15:12:00,44.5,31.0,29.88,ENE,72,0.0,0.0,58,0.00,,,0.00,90,weatherlink.com 1.10,2013-10-31 21:12:00,
2013-10-31 15:27:00,44.0,31.0,29.88,ENE,69,0.0,3.0,60,0.00,,,0.00,144,weatherlink.com 1.10,2013-10-31 21:27:00,
2013-10-31 15:42:00,43.9,32.0,29.89,West,265,0.0,4.0,62,0.00,,,0.00,113,weatherlink.com 1.10,2013-10-31 21:42:00,
2013-10-31 15:56:00,43.9,30.0,29.89,West,268,0.0,6.0,59,0.00,,,0.00,81,weatherlink.com 1.10,2013-10-31 21:56:00,
2013-10-31 16:11:00,44.0,30.0,29.89,WSW,257,0.0,7.0,57,0.00,,,0.00,72,weatherlink.com 1.10,2013-10-31 22:11:00,
2013-10-31 16:26:00,44.3,30.0,29.89,West,259,0.0,7.0,56,0.00,,,0.00,197,weatherlink.com 1.10,2013-10-31 22:26:00,
2013-10-31 16:41:00,44.9,31.0,29.90,ESE,117,0.0,5.0,57,0.00,,,0.00,102,weatherlink.com 1.10,2013-10-31 22:41:00,
2013-10-31 16:55:00,45.2,29.0,29.91,ESE,122,10.0,10.0,53,0.00,,,0.00,91,weatherlink.com 1.10,2013-10-31 22:55:00,
2013-10-31 17:10:00,44.4,28.0,29.92,NE,38,0.0,10.0,53,0.00,,,0.00,40,weatherlink.com 1.10,2013-10-31 23:10:00,
2013-10-31 17:25:00,43.2,29.0,29.92,SW,232,2.0,4.0,57,0.00,,,0.00,23,weatherlink.com 1.10,2013-10-31 23:25:00,
2013-10-31 17:40:00,41.6,27.0,29.92,West,262,7.0,10.0,57,0.00,,,0.00,11,weatherlink.com 1.10,2013-10-31 23:40:00,
2013-10-31 17:54:00,41.8,25.0,29.91,WNW,288,5.0,19.0,52,0.00,,,0.00,7,weatherlink.com 1.10,2013-10-31 23:54:00,
2013-10-31 18:09:00,42.4,23.0,29.92,WNW,294,3.0,16.0,46,0.00,,,0.00,0,weatherlink.com 1.10,2013-11-01 00:09:00,
2013-10-31 18:24:00,42.7,23.0,29.92,WNW,284,2.0,18.0,45,0.00,,,0.00,0,weatherlink.com 1.10,2013-11-01 00:24:00,
2013-10-31 18:39:00,42.4,22.0,29.92,West,275,3.0,18.0,44,0.00,,,0.00,0,weatherlink.com 1.10,2013-11-01 00:39:00,
2013-10-31 18:53:00,42.4,21.0,29.93,West,266,6.0,17.0,42,0.00,,,0.00,0,weatherlink.com 1.10,2013-11-01 00:53:00,
2013-10-31 19:08:00,42.0,21.0,29.93,WSW,253,3.0,13.0,42,0.00,,,0.00,0,weatherlink.com 1.10,2013-11-01 01:08:00,
2013-10-31 19:23:00,42.4,19.0,29.93,WNW,288,3.0,23.0,38,0.00,,,0.00,0,weatherlink.com 1.10,2013-11-01 01:23:00,
2013-10-31 19:38:00,42.3,19.0,29.94,West,263,12.0,23.0,39,0.00,,,0.00,0,weatherlink.com 1.10,2013-11-01 01:38:00,
2013-10-31 19:52:00,41.8,18.0,29.92,West,261,9.0,24.0,38,0.00,,,0.00,0,weatherlink.com 1.10,2013-11-01 01:52:00,
2013-10-31 20:08:00,42.5,17.0,29.92,WNW,286,6.0,25.0,35,0.00,,,0.00,0,weatherlink.com 1.10,2013-11-01 02:08:00,
2013-10-31 20:22:00,42.3,21.0,29.95,NE,55,3.0,11.0,42,0.00,,,0.00,0,weatherlink.com 1.10,2013-11-01 02:22:00,
2013-10-31 20:37:00,38.3,21.0,29.96,West,274,2.0,6.0,50,0.00,,,0.00,0,weatherlink.com 1.10,2013-11-01 02:37:00,
2013-10-31 20:52:00,37.7,23.0,29.97,ENE,77,0.0,5.0,54,0.00,,,0.00,0,weatherlink.com 1.10,2013-11-01 02:52:00,
2013-10-31 21:07:00,36.7,22.0,29.98,SE,140,2.0,7.0,55,0.00,,,0.00,0,weatherlink.com 1.10,2013-11-01 03:07:00,
2013-10-31 21:22:00,36.5,22.0,29.99,SW,220,1.0,5.0,55,0.00,,,0.00,0,weatherlink.com 1.10,2013-11-01 03:22:00,
2013-10-31 21:37:00,37.2,22.0,29.99,WSW,251,10.0,13.0,54,0.00,,,0.00,0,weatherlink.com 1.10,2013-11-01 03:37:00,
2013-10-31 21:51:00,37.9,21.0,29.99,West,276,2.0,11.0,50,0.00,,,0.00,0,weatherlink.com 1.10,2013-11-01 03:51:00,
2013-10-31 22:06:00,37.8,20.0,30.00,West,265,2.0,9.0,48,0.00,,,0.00,0,weatherlink.com 1.10,2013-11-01 04:06:00,
2013-10-31 22:21:00,37.0,22.0,30.01,NNE,19,2.0,4.0,55,0.00,,,0.00,0,weatherlink.com 1.10,2013-11-01 04:21:00,
2013-10-31 22:36:00,35.0,23.0,30.02,ESE,117,1.0,5.0,60,0.00,,,0.00,0,weatherlink.com 1.10,2013-11-01 04:36:00,
2013-10-31 22:51:00,34.5,22.0,30.03,NNE,26,0.0,5.0,60,0.00,,,0.00,0,weatherlink.com 1.10,2013-11-01 04:51:00,
2013-10-31 23:06:00,35.2,21.0,30.03,WSW,242,1.0,8.0,57,0.00,,,0.00,0,weatherlink.com 1.10,2013-11-01 05:06:00,
2013-10-31 23:20:00,35.2,21.0,30.04,East,90,0.0,3.0,57,0.00,,,0.00,0,weatherlink.com 1.10,2013-11-01 05:20:00,
2013-10-31 23:35:00,35.1,22.0,30.04,WSW,254,2.0,5.0,58,0.00,,,0.00,0,weatherlink.com 1.10,2013-11-01 05:35:00,
2013-10-31 23:50:00,35.5,21.0,30.04,West,259,9.0,12.0,56,0.00,,,0.00,0,weatherlink.com 1.10,2013-11-01 05:50:00,